Houyoshi Park — D5KW8 — position and weather

sailwx.info

Track history (hours):
 
Tides and Currents Weather Stations Pressure Air Temp Water Temp Dewpoint Dewpoint Depression Visibility Wind Speed Wind Dir Waves Ship Positions

Houyoshi Park

Last reported at 2017-Oct-25 15:01 UTC. Time now 2017-Nov-19 18:20 UTC.
Position N 36°08' E 014°40'.
Warning: this ship's position is 25 days out of date.

Length 146 m; draft 9.8 m.

Type: Tanker. MMSI: 636017424.

Date/timePositionNaut miles runAvg speedWind from/ knotsBaromVisibWave heightAir tempDewpointWater temp
2017-Oct-25 15:01N 36°08' E 014°40'912.5
2017-Oct-25 14:20N 36°10' E 014°29'413.2
2017-Oct-25 14:00N 36°11' E 014°24'713.5
2017-Oct-25 13:30N 36°12' E 014°16'713.3
2017-Oct-25 13:00N 36°13' E 014°08'713.2
2017-Oct-25 12:30N 36°14' E 013°60'713.3
2017-Oct-25 12:00N 36°15' E 013°52'713.1
2017-Oct-25 11:30N 36°16' E 013°43'  
2017-Oct-22 00:18N 36°06' W 005°20'1 4.9
2017-Oct-22 00:00N 36°05' W 005°18'4 5.0
2017-Oct-21 23:10N 36°02' W 005°21'411.3
2017-Oct-21 22:50N 35°59' W 005°24'  
2017-Oct-16 19:27N 33°21' W 009°39'  
Track history (hours):
 
Tides and Currents Weather Stations Pressure Air Temp Water Temp Dewpoint Dewpoint Depression Visibility Wind Speed Wind Dir Waves Ship Positions

Houyoshi Park

Last reported at 2017-Oct-25 15:01 UTC. Time now 2017-Nov-19 18:20 UTC.
Position N 36°08' E 014°40'.
Warning: this ship's position is 25 days out of date.

Length 146 m; draft 9.8 m.

Type: Tanker. MMSI: 636017424.

Date/timePositionNaut miles runAvg speedWind from/ knotsBaromVisibWave heightAir tempDewpointWater temp
2017-Oct-25 15:01N 36°08' E 014°40'912.5
2017-Oct-25 14:20N 36°10' E 014°29'413.2
2017-Oct-25 14:00N 36°11' E 014°24'713.5
2017-Oct-25 13:30N 36°12' E 014°16'713.3
2017-Oct-25 13:00N 36°13' E 014°08'713.2
2017-Oct-25 12:30N 36°14' E 013°60'713.3
2017-Oct-25 12:00N 36°15' E 013°52'713.1
2017-Oct-25 11:30N 36°16' E 013°43'  
2017-Oct-22 00:18N 36°06' W 005°20'1 4.9
2017-Oct-22 00:00N 36°05' W 005°18'4 5.0
2017-Oct-21 23:10N 36°02' W 005°21'411.3
2017-Oct-21 22:50N 35°59' W 005°24'  
2017-Oct-16 19:27N 33°21' W 009°39'  

Dump ship's entire track history